Disclaimer

Please do not use the information listed here in-flight or in-navigation, as they are not provided to us by the airports but are provided by volunteers, so they might be outdated.

Search


Regions


Airport information page

Radio informations:
TACHINA TWR - 122.8 MHz
GUAYAQUIL RDO - 126.9 MHz

Airport informations:
Latitude: 00° 58' 42.67" N
Longitude: 079° 37' 35.94" W
Elevation: 32 feet - 10 meters
Operating hours: From sunrise to sunset (SR-SS)
Operating agency: Civil government, landing fees and diplomatic clearance may be required
Timezone: UTC-5
Fuel: Jet A1, without icing nhibitor.

Runway information:
18/36 - 7874 x 148 feet< - >2400 x 45 meters

Recent METARs:
SETN 211700Z 21007KT 9999 FEW026 SCT100 BKN300 31/23 Q1012 A2990
SETN 211700Z 21007KT 9999 FEW026 SCT100 BKN300 31/23 Q1012 A2990
SETN 211800Z 29012KT 9999 FEW030 30/24 Q1011 A2987

Airport on the map: